TAF KBLH
KBLH 270520Z 2706/2806 31005KT P6SM SCT250 FM271200 VRB06KT P6SM SKC=
METAR KBLH
WC KBLH
WS KBLH
WV KBLH